Time;durP1;ratioP1;P1;durP2;ratioP2;P2;SDS_P1;SDS_P2;PMS_P1;PMS_P2;Temp;Humidity;BMP_temperature;BMP_pressure;BME280_temperature;BME280_humidity;BME280_pressure;Samples;Min_cycle;Max_cycle;Signal;HPM_P1;HPM_P2
2022/02/17 00:01:45;;;;;;;;;;;23.60;35.30;;;;;;494000;241;1347;-74
2022/02/17 00:03:46;;;;;;;;;;;23.50;35.30;;;;;;494197;241;1014;-74
2022/02/17 00:05:47;;;;;;;;;;;23.50;35.30;;;;;;494150;241;920;-74
2022/02/17 00:07:49;;;;;;;;;;;23.50;35.30;;;;;;494340;241;1146;-74
2022/02/17 00:09:50;;;;;;;;;;;23.60;35.30;;;;;;494271;241;2191;-74
2022/02/17 00:11:51;;;;;;;;;;;23.60;35.20;;;;;;494226;241;1245;-74
2022/02/17 00:13:53;;;;;;;;;;;23.70;35.10;;;;;;494230;241;966;-74
2022/02/17 00:15:54;;;;;;;;;;;23.90;35.00;;;;;;494146;241;1027;-74
2022/02/17 00:17:55;;;;;;;;;;;23.90;34.80;;;;;;494038;241;1255;-74
2022/02/17 00:19:57;;;;;;;;;;;23.90;34.90;;;;;;494217;241;942;-74
2022/02/17 00:21:58;;;;;;;;;;;24.00;34.90;;;;;;494125;241;1227;-74
2022/02/17 00:23:59;;;;;;;;;;;24.00;34.90;;;;;;494218;241;945;-74
2022/02/17 00:26:01;;;;;;;;;;;24.00;34.90;;;;;;494208;241;994;-74
2022/02/17 00:28:02;;;;;;;;;;;24.00;35.00;;;;;;494143;241;1117;-74
2022/02/17 00:30:03;;;;;;;;;;;24.00;35.10;;;;;;494231;241;2112;-74
2022/02/17 00:32:05;;;;;;;;;;;24.00;35.10;;;;;;494222;241;1189;-74
2022/02/17 00:34:07;;;;;;;;;;;24.00;35.10;;;;;;494240;241;1004;-74
2022/02/17 00:36:07;;;;;;;;;;;24.00;35.10;;;;;;494183;241;1447;-74
2022/02/17 00:38:09;;;;;;;;;;;24.00;35.20;;;;;;494229;241;1154;-74
2022/02/17 00:40:10;;;;;;;;;;;23.90;35.20;;;;;;494196;241;977;-74
2022/02/17 00:42:11;;;;;;;;;;;24.00;35.10;;;;;;494090;241;1192;-74
2022/02/17 00:44:13;;;;;;;;;;;24.10;35.10;;;;;;494227;241;1287;-74
2022/02/17 00:46:14;;;;;;;;;;;24.10;35.00;;;;;;494168;241;1196;-74
2022/02/17 00:48:15;;;;;;;;;;;24.10;35.10;;;;;;494096;241;934;-74
2022/02/17 00:50:17;;;;;;;;;;;24.10;35.10;;;;;;494166;241;2182;-74
2022/02/17 00:52:18;;;;;;;;;;;24.10;35.10;;;;;;494076;241;1071;-74
2022/02/17 00:54:19;;;;;;;;;;;24.10;35.10;;;;;;494172;241;1028;-74
2022/02/17 00:56:21;;;;;;;;;;;24.20;35.00;;;;;;494150;241;1223;-74
2022/02/17 00:58:22;;;;;;;;;;;24.20;34.90;;;;;;494168;241;944;-74
2022/02/17 01:00:23;;;;;;;;;;;24.20;34.90;;;;;;494162;241;963;-74
2022/02/17 01:02:25;;;;;;;;;;;24.10;35.10;;;;;;494124;241;1103;-74
2022/02/17 01:04:26;;;;;;;;;;;24.10;35.10;;;;;;494195;241;1148;-74
2022/02/17 01:06:27;;;;;;;;;;;24.20;35.10;;;;;;494115;241;1262;-74
2022/02/17 01:08:29;;;;;;;;;;;24.20;35.00;;;;;;494207;241;1195;-74
2022/02/17 01:10:30;;;;;;;;;;;24.20;35.00;;;;;;494187;241;2116;-74
2022/02/17 01:12:31;;;;;;;;;;;24.30;34.90;;;;;;494230;241;1208;-74
2022/02/17 01:14:33;;;;;;;;;;;24.20;35.00;;;;;;494214;241;957;-74
2022/02/17 01:16:34;;;;;;;;;;;24.20;35.00;;;;;;494042;241;1149;-74
2022/02/17 01:18:35;;;;;;;;;;;24.10;35.00;;;;;;494156;241;961;-74
2022/02/17 01:20:37;;;;;;;;;;;24.10;35.00;;;;;;494177;241;1156;-74
2022/02/17 01:22:38;;;;;;;;;;;24.20;35.00;;;;;;494419;241;1134;-74
2022/02/17 01:24:39;;;;;;;;;;;24.20;34.90;;;;;;494246;241;1126;-74
2022/02/17 01:26:41;;;;;;;;;;;24.10;34.90;;;;;;494268;241;1169;-74
2022/02/17 01:28:42;;;;;;;;;;;24.20;34.90;;;;;;494214;241;1139;-74
2022/02/17 01:30:43;;;;;;;;;;;24.20;34.80;;;;;;494169;241;2186;-74
2022/02/17 01:32:45;;;;;;;;;;;24.20;34.80;;;;;;494128;241;1031;-74
2022/02/17 01:34:46;;;;;;;;;;;24.30;34.70;;;;;;494208;241;1124;-74
2022/02/17 01:36:47;;;;;;;;;;;24.30;34.70;;;;;;494119;241;1036;-74
2022/02/17 01:38:49;;;;;;;;;;;24.30;34.80;;;;;;494213;241;1176;-74
2022/02/17 01:40:51;;;;;;;;;;;24.30;34.70;;;;;;494209;241;1095;-74
2022/02/17 01:42:52;;;;;;;;;;;24.20;34.80;;;;;;494192;241;1198;-74
2022/02/17 01:44:53;;;;;;;;;;;24.30;34.70;;;;;;494223;241;932;-74
2022/02/17 01:46:55;;;;;;;;;;;24.30;34.80;;;;;;494146;241;1162;-74
2022/02/17 01:48:56;;;;;;;;;;;24.20;34.80;;;;;;494221;241;1160;-74
2022/02/17 01:50:58;;;;;;;;;;;24.20;34.80;;;;;;494203;241;2191;-74
2022/02/17 01:52:59;;;;;;;;;;;24.20;34.80;;;;;;494195;241;1101;-74
2022/02/17 01:55:00;;;;;;;;;;;24.10;34.90;;;;;;494211;241;1033;-74
2022/02/17 01:57:02;;;;;;;;;;;24.10;34.80;;;;;;494080;241;1188;-74
2022/02/17 01:59:03;;;;;;;;;;;24.10;34.90;;;;;;494144;241;1887;-74
2022/02/17 02:01:05;;;;;;;;;;;24.10;34.80;;;;;;494165;241;1121;-74
2022/02/17 02:03:06;;;;;;;;;;;24.20;34.70;;;;;;494097;241;1003;-74
2022/02/17 02:05:07;;;;;;;;;;;24.10;34.70;;;;;;494190;241;944;-74
2022/02/17 02:07:08;;;;;;;;;;;24.10;34.70;;;;;;494226;241;1197;-74
2022/02/17 02:09:11;;;;;;;;;;;24.10;34.80;;;;;;494203;241;1181;-74
2022/02/17 02:11:12;;;;;;;;;;;24.10;34.80;;;;;;494226;241;2104;-74
2022/02/17 02:13:13;;;;;;;;;;;24.10;34.70;;;;;;494136;241;982;-74
2022/02/17 02:15:15;;;;;;;;;;;24.10;34.80;;;;;;494196;241;957;-74
2022/02/17 02:17:16;;;;;;;;;;;24.10;34.80;;;;;;494281;241;1427;-74
2022/02/17 02:19:17;;;;;;;;;;;24.20;34.70;;;;;;494143;241;946;-74
2022/02/17 02:21:19;;;;;;;;;;;24.20;34.60;;;;;;494216;241;1326;-74
2022/02/17 02:23:20;;;;;;;;;;;24.10;34.60;;;;;;494188;241;1139;-74
2022/02/17 02:25:22;;;;;;;;;;;24.20;34.60;;;;;;494260;241;1034;-74
2022/02/17 02:27:23;;;;;;;;;;;24.20;34.50;;;;;;494179;241;1096;-74
2022/02/17 02:29:24;;;;;;;;;;;24.20;34.50;;;;;;494252;241;978;-74
2022/02/17 02:31:26;;;;;;;;;;;24.20;34.50;;;;;;494128;237;2175;-74
2022/02/17 02:33:27;;;;;;;;;;;24.20;34.40;;;;;;494249;241;950;-74
2022/02/17 02:35:28;;;;;;;;;;;24.20;34.30;;;;;;494320;241;949;-74
2022/02/17 02:37:30;;;;;;;;;;;24.10;34.40;;;;;;494230;241;1140;-74
2022/02/17 02:39:31;;;;;;;;;;;24.20;34.40;;;;;;494277;241;1167;-74
2022/02/17 02:41:32;;;;;;;;;;;24.20;34.50;;;;;;494160;241;1194;-74
2022/02/17 02:43:33;;;;;;;;;;;24.10;34.40;;;;;;494225;241;922;-74
2022/02/17 02:45:35;;;;;;;;;;;24.20;34.30;;;;;;494218;241;1173;-74
2022/02/17 02:47:36;;;;;;;;;;;24.20;34.30;;;;;;494171;241;1261;-74
2022/02/17 02:49:38;;;;;;;;;;;24.20;34.30;;;;;;494176;241;1119;-74
2022/02/17 02:51:39;;;;;;;;;;;24.20;34.20;;;;;;494132;241;2114;-74
2022/02/17 02:53:40;;;;;;;;;;;24.30;34.10;;;;;;494257;241;1178;-74
2022/02/17 02:55:42;;;;;;;;;;;24.20;34.10;;;;;;494108;241;1035;-74
2022/02/17 02:57:43;;;;;;;;;;;24.20;34.20;;;;;;494212;241;1115;-74
2022/02/17 02:59:45;;;;;;;;;;;24.20;34.20;;;;;;494192;241;1121;-74
2022/02/17 03:01:46;;;;;;;;;;;24.20;34.10;;;;;;494143;241;1132;-74
2022/02/17 03:03:49;;;;;;;;;;;24.20;34.10;;;;;;494270;241;1094;-74
2022/02/17 03:05:48;;;;;;;;;;;24.20;34.10;;;;;;494262;241;1422;-74
2022/02/17 03:07:52;;;;;;;;;;;24.20;34.10;;;;;;494200;241;1239;-74
2022/02/17 03:09:51;;;;;;;;;;;24.10;34.10;;;;;;493974;241;1399;-74
2022/02/17 03:11:52;;;;;;;;;;;24.20;34.10;;;;;;494108;241;2104;-74
2022/02/17 03:13:54;;;;;;;;;;;24.30;34.00;;;;;;494154;241;1060;-74
2022/02/17 03:15:55;;;;;;;;;;;24.30;33.80;;;;;;494224;241;1118;-74
2022/02/17 03:17:56;;;;;;;;;;;24.30;33.90;;;;;;494293;241;1171;-74
2022/02/17 03:19:58;;;;;;;;;;;24.20;34.00;;;;;;494156;241;1026;-74
2022/02/17 03:21:59;;;;;;;;;;;24.20;34.00;;;;;;494143;241;1094;-74
2022/02/17 03:24:00;;;;;;;;;;;24.20;34.00;;;;;;494177;241;1125;-74
2022/02/17 03:26:02;;;;;;;;;;;24.20;34.00;;;;;;494195;241;1153;-74
2022/02/17 03:28:03;;;;;;;;;;;24.20;33.90;;;;;;494187;241;1218;-74
2022/02/17 03:30:04;;;;;;;;;;;24.20;33.90;;;;;;494234;241;1163;-74
2022/02/17 03:32:06;;;;;;;;;;;24.10;33.90;;;;;;494183;241;2111;-74
2022/02/17 03:34:07;;;;;;;;;;;24.20;33.80;;;;;;494190;241;949;-74
2022/02/17 03:36:08;;;;;;;;;;;24.20;33.80;;;;;;494137;241;1167;-74
2022/02/17 03:38:10;;;;;;;;;;;24.20;33.70;;;;;;494140;241;1167;-74
2022/02/17 03:40:11;;;;;;;;;;;24.20;33.70;;;;;;494237;241;955;-74
2022/02/17 03:42:13;;;;;;;;;;;24.20;33.60;;;;;;494207;241;1096;-74
2022/02/17 03:44:14;;;;;;;;;;;24.20;33.60;;;;;;494241;241;1073;-74
2022/02/17 03:46:15;;;;;;;;;;;24.10;33.60;;;;;;494184;241;1295;-74
2022/02/17 03:48:17;;;;;;;;;;;24.20;33.60;;;;;;494196;241;1075;-74
2022/02/17 03:50:18;;;;;;;;;;;24.20;33.60;;;;;;494199;241;954;-74
2022/02/17 03:52:19;;;;;;;;;;;24.20;33.60;;;;;;494279;241;2126;-74
2022/02/17 03:54:21;;;;;;;;;;;24.20;33.50;;;;;;494212;241;1217;-74
2022/02/17 03:56:22;;;;;;;;;;;24.20;33.50;;;;;;494162;241;1291;-74
2022/02/17 04:00:43;;;;;;;;;;;24.20;33.50;;;;;;494254;241;1256;-74
2022/02/17 04:02:44;;;;;;;;;;;24.20;33.40;;;;;;494127;241;1080;-74
2022/02/17 04:04:45;;;;;;;;;;;24.20;33.50;;;;;;494277;241;965;-74
2022/02/17 04:06:47;;;;;;;;;;;24.20;33.50;;;;;;494310;241;1197;-74
2022/02/17 04:08:48;;;;;;;;;;;24.20;33.50;;;;;;494259;241;1136;-74
2022/02/17 04:10:49;;;;;;;;;;;24.20;33.40;;;;;;494274;241;2119;-74
2022/02/17 04:12:51;;;;;;;;;;;24.20;33.50;;;;;;494283;241;1068;-74
2022/02/17 04:14:52;;;;;;;;;;;24.20;33.50;;;;;;494186;241;923;-74
2022/02/17 04:16:54;;;;;;;;;;;24.20;33.50;;;;;;494192;241;1221;-74
2022/02/17 04:18:55;;;;;;;;;;;24.10;33.50;;;;;;494119;241;1343;-74
2022/02/17 04:20:56;;;;;;;;;;;24.10;33.50;;;;;;494254;241;1302;-74
2022/02/17 04:22:58;;;;;;;;;;;24.10;33.50;;;;;;494380;241;1157;-74
2022/02/17 04:24:59;;;;;;;;;;;24.10;33.40;;;;;;494245;241;1207;-74
2022/02/17 04:27:00;;;;;;;;;;;24.20;33.40;;;;;;494259;241;1193;-74
2022/02/17 04:29:02;;;;;;;;;;;24.10;33.50;;;;;;494266;241;941;-74
2022/02/17 04:31:03;;;;;;;;;;;24.10;33.40;;;;;;494145;241;2174;-74
2022/02/17 04:33:04;;;;;;;;;;;24.10;33.40;;;;;;494304;241;1206;-74
2022/02/17 04:35:06;;;;;;;;;;;24.10;33.40;;;;;;494204;241;949;-74
2022/02/17 04:37:07;;;;;;;;;;;24.10;33.40;;;;;;494234;241;1182;-74
2022/02/17 04:39:08;;;;;;;;;;;24.10;33.40;;;;;;494212;241;1174;-74
2022/02/17 04:43:29;;;;;;;;;;;24.10;33.30;;;;;;494323;241;1151;-74
2022/02/17 04:45:30;;;;;;;;;;;24.10;33.40;;;;;;494175;241;957;-74
2022/02/17 04:47:31;;;;;;;;;;;24.10;33.40;;;;;;494242;241;1036;-74
2022/02/17 04:49:33;;;;;;;;;;;24.10;33.40;;;;;;494101;241;979;-74
2022/02/17 04:51:34;;;;;;;;;;;24.10;33.40;;;;;;494132;241;2191;-74
2022/02/17 04:53:35;;;;;;;;;;;24.10;33.40;;;;;;494126;241;955;-74
2022/02/17 04:55:37;;;;;;;;;;;24.10;33.40;;;;;;494350;241;1215;-74
2022/02/17 04:57:38;;;;;;;;;;;24.10;33.50;;;;;;494150;241;1122;-74
2022/02/17 04:59:39;;;;;;;;;;;24.10;33.30;;;;;;494205;241;945;-74
2022/02/17 05:01:41;;;;;;;;;;;24.20;33.40;;;;;;494105;241;1206;-72
2022/02/17 05:03:42;;;;;;;;;;;24.20;33.30;;;;;;494117;241;957;-72
2022/02/17 05:05:44;;;;;;;;;;;24.10;33.40;;;;;;494136;241;1223;-73
2022/02/17 05:07:45;;;;;;;;;;;24.10;33.40;;;;;;494028;241;1134;-73
2022/02/17 05:09:46;;;;;;;;;;;24.10;33.40;;;;;;494194;241;1105;-74
2022/02/17 05:11:47;;;;;;;;;;;24.10;33.50;;;;;;494059;241;2128;-74
2022/02/17 05:13:49;;;;;;;;;;;24.10;33.50;;;;;;494149;241;931;-74
2022/02/17 05:15:50;;;;;;;;;;;24.10;33.40;;;;;;494104;241;1393;-74
2022/02/17 05:17:51;;;;;;;;;;;24.10;33.40;;;;;;494155;241;1117;-74
2022/02/17 05:19:53;;;;;;;;;;;24.10;33.50;;;;;;494032;241;1029;-74
2022/02/17 05:21:54;;;;;;;;;;;24.10;33.50;;;;;;493854;241;1229;-74
2022/02/17 05:23:55;;;;;;;;;;;24.10;33.40;;;;;;493977;241;946;-74
2022/02/17 05:25:57;;;;;;;;;;;24.00;33.50;;;;;;494015;241;1287;-74
2022/02/17 05:27:58;;;;;;;;;;;24.00;33.60;;;;;;493968;241;1046;-74
2022/02/17 05:29:59;;;;;;;;;;;24.10;33.60;;;;;;494059;241;944;-74
2022/02/17 05:32:00;;;;;;;;;;;24.00;33.60;;;;;;494000;241;2493;-74
2022/02/17 05:34:02;;;;;;;;;;;24.10;33.50;;;;;;494291;241;1577;-74
2022/02/17 05:36:03;;;;;;;;;;;24.10;33.50;;;;;;494109;241;1092;-74
2022/02/17 05:38:04;;;;;;;;;;;24.10;33.50;;;;;;494168;241;1039;-74
2022/02/17 05:40:06;;;;;;;;;;;24.10;33.60;;;;;;493980;241;1165;-74
2022/02/17 05:42:07;;;;;;;;;;;24.10;33.60;;;;;;493942;241;1121;-74
2022/02/17 05:44:09;;;;;;;;;;;24.10;33.60;;;;;;493889;241;1086;-74
2022/02/17 05:46:10;;;;;;;;;;;24.10;33.70;;;;;;493905;241;1201;-74
2022/02/17 05:48:11;;;;;;;;;;;24.10;33.70;;;;;;493794;241;991;-74
2022/02/17 05:50:13;;;;;;;;;;;24.10;33.70;;;;;;493848;241;1005;-74
2022/02/17 05:52:14;;;;;;;;;;;24.10;33.70;;;;;;493946;241;2185;-74
2022/02/17 05:54:15;;;;;;;;;;;24.10;33.60;;;;;;493906;241;1148;-74
2022/02/17 05:56:17;;;;;;;;;;;24.10;33.60;;;;;;493864;241;1287;-74
2022/02/17 05:58:18;;;;;;;;;;;24.10;33.60;;;;;;493950;241;1003;-74
2022/02/17 06:00:20;;;;;;;;;;;24.10;33.70;;;;;;493921;241;942;-74
2022/02/17 06:02:21;;;;;;;;;;;24.10;33.80;;;;;;493911;241;1067;-74
2022/02/17 06:04:22;;;;;;;;;;;24.00;33.80;;;;;;493831;241;1313;-74
2022/02/17 06:06:23;;;;;;;;;;;24.00;33.90;;;;;;493835;241;1121;-74
2022/02/17 06:08:25;;;;;;;;;;;23.90;34.10;;;;;;493895;241;1144;-74
2022/02/17 06:10:26;;;;;;;;;;;23.90;34.10;;;;;;493975;241;1178;-74
2022/02/17 06:12:27;;;;;;;;;;;23.90;34.10;;;;;;493970;241;2116;-74
2022/02/17 06:14:29;;;;;;;;;;;24.00;33.90;;;;;;493899;241;1047;-74
2022/02/17 06:16:30;;;;;;;;;;;23.90;34.00;;;;;;493891;241;1225;-74
2022/02/17 06:18:31;;;;;;;;;;;24.00;34.10;;;;;;493908;241;1037;-74
2022/02/17 06:20:33;;;;;;;;;;;23.90;34.10;;;;;;493921;241;1058;-74
2022/02/17 06:22:34;;;;;;;;;;;23.90;34.10;;;;;;493838;241;1055;-74
2022/02/17 06:24:35;;;;;;;;;;;23.80;34.10;;;;;;493897;241;1183;-74
2022/02/17 06:26:37;;;;;;;;;;;23.80;34.20;;;;;;493766;241;1225;-74
2022/02/17 06:28:38;;;;;;;;;;;23.90;34.20;;;;;;493758;241;1073;-74
2022/02/17 06:30:41;;;;;;;;;;;23.90;34.10;;;;;;493810;241;1093;-74
2022/02/17 06:32:41;;;;;;;;;;;23.90;34.10;;;;;;493752;241;2178;-74
2022/02/17 06:34:42;;;;;;;;;;;23.90;34.20;;;;;;493773;241;1042;-74
2022/02/17 06:36:44;;;;;;;;;;;23.90;34.10;;;;;;493682;241;1297;-74
2022/02/17 06:38:45;;;;;;;;;;;24.00;34.10;;;;;;493639;241;1245;-74
2022/02/17 06:40:46;;;;;;;;;;;24.00;34.00;;;;;;493636;241;1296;-74
2022/02/17 06:42:48;;;;;;;;;;;24.00;34.00;;;;;;493948;241;1027;-74
2022/02/17 06:44:49;;;;;;;;;;;23.90;34.10;;;;;;493735;241;1029;-74
2022/02/17 06:46:51;;;;;;;;;;;24.00;34.20;;;;;;493893;241;1137;-74
2022/02/17 06:48:52;;;;;;;;;;;23.80;34.30;;;;;;493729;241;1035;-74
2022/02/17 06:50:53;;;;;;;;;;;23.80;34.30;;;;;;493730;241;1288;-74
2022/02/17 06:52:55;;;;;;;;;;;23.80;34.40;;;;;;493856;241;2182;-74
2022/02/17 06:54:56;;;;;;;;;;;23.80;34.40;;;;;;493632;241;1155;-74
2022/02/17 06:56:58;;;;;;;;;;;23.80;34.50;;;;;;493881;241;1102;-74
2022/02/17 06:58:59;;;;;;;;;;;23.80;34.40;;;;;;493717;241;988;-74
2022/02/17 07:01:00;;;;;;;;;;;23.90;34.40;;;;;;493732;241;1148;-74
2022/02/17 07:03:06;;;;;;;;;;;23.90;34.40;;;;;;493792;241;1098;-74
2022/02/17 07:05:03;;;;;;;;;;;23.80;34.40;;;;;;493317;241;1327;-74
2022/02/17 07:07:04;;;;;;;;;;;23.80;34.40;;;;;;493961;241;1181;-74
2022/02/17 07:09:06;;;;;;;;;;;23.80;34.50;;;;;;493754;241;981;-74
2022/02/17 07:11:07;;;;;;;;;;;23.80;34.50;;;;;;493938;241;1249;-74
2022/02/17 07:13:08;;;;;;;;;;;23.70;34.50;;;;;;493728;241;2178;-74
2022/02/17 07:15:09;;;;;;;;;;;23.70;34.70;;;;;;493790;241;1051;-74
2022/02/17 07:17:11;;;;;;;;;;;23.80;34.60;;;;;;493770;241;1103;-74
2022/02/17 07:19:12;;;;;;;;;;;23.80;34.50;;;;;;493708;241;1111;-74
2022/02/17 07:21:14;;;;;;;;;;;23.80;34.60;;;;;;493533;241;1143;-74
2022/02/17 07:23:15;;;;;;;;;;;23.90;34.50;;;;;;493491;241;1123;-74
2022/02/17 07:25:16;;;;;;;;;;;23.90;34.50;;;;;;493586;241;1267;-74
2022/02/17 07:27:18;;;;;;;;;;;23.90;34.50;;;;;;493726;241;1054;-74
2022/02/17 07:29:19;;;;;;;;;;;23.90;34.60;;;;;;493587;241;961;-74
2022/02/17 07:31:21;;;;;;;;;;;23.80;34.60;;;;;;493483;241;1180;-74
2022/02/17 07:33:22;;;;;;;;;;;23.90;34.70;;;;;;493504;241;2193;-74
2022/02/17 07:35:23;;;;;;;;;;;23.90;34.70;;;;;;493536;241;980;-74
2022/02/17 07:37:24;;;;;;;;;;;23.80;34.70;;;;;;493394;241;1223;-73
2022/02/17 07:39:26;;;;;;;;;;;23.80;34.80;;;;;;493471;241;1060;-73
2022/02/17 07:41:28;;;;;;;;;;;24.00;34.80;;;;;;493464;241;1255;-74
2022/02/17 07:43:28;;;;;;;;;;;23.90;34.90;;;;;;493734;241;1413;-74
2022/02/17 07:45:30;;;;;;;;;;;23.80;35.00;;;;;;493489;241;1193;-74
2022/02/17 07:47:31;;;;;;;;;;;23.90;35.00;;;;;;493642;241;1150;-74
2022/02/17 07:49:32;;;;;;;;;;;23.90;34.90;;;;;;493425;241;1081;-74
2022/02/17 07:51:34;;;;;;;;;;;23.80;35.10;;;;;;493365;241;1141;-74
2022/02/17 07:53:35;;;;;;;;;;;23.90;35.20;;;;;;493115;241;2420;-73
2022/02/17 07:55:36;;;;;;;;;;;23.80;35.30;;;;;;493280;241;1252;-73
2022/02/17 07:57:38;;;;;;;;;;;23.90;35.30;;;;;;493197;241;1139;-73
2022/02/17 07:59:39;;;;;;;;;;;23.90;35.40;;;;;;493253;241;1034;-74
2022/02/17 08:01:40;;;;;;;;;;;23.90;35.40;;;;;;493330;241;1253;-74
2022/02/17 08:03:42;;;;;;;;;;;23.90;35.40;;;;;;493437;241;1041;-74
2022/02/17 08:05:43;;;;;;;;;;;23.90;35.40;;;;;;493651;241;1313;-74
2022/02/17 08:07:44;;;;;;;;;;;23.90;35.40;;;;;;494115;241;1065;-74
2022/02/17 08:09:45;;;;;;;;;;;23.90;35.50;;;;;;494282;241;1235;-74
2022/02/17 08:11:47;;;;;;;;;;;23.90;35.70;;;;;;493766;241;1301;-73
2022/02/17 08:13:48;;;;;;;;;;;23.80;35.80;;;;;;493238;241;2130;-74
2022/02/17 08:15:52;;;;;;;;;;;23.80;35.90;;;;;;493188;241;1195;-74
2022/02/17 08:17:52;;;;;;;;;;;23.80;35.90;;;;;;493338;241;1380;-74
2022/02/17 08:19:53;;;;;;;;;;;23.90;35.90;;;;;;493103;241;1077;-74
2022/02/17 08:21:55;;;;;;;;;;;23.90;35.90;;;;;;493230;241;1183;-73
2022/02/17 08:23:56;;;;;;;;;;;23.80;35.90;;;;;;493234;241;1119;-73
2022/02/17 08:26:00;;;;;;;;;;;23.70;36.10;;;;;;493205;238;1247;-74
2022/02/17 08:27:59;;;;;;;;;;;23.80;36.10;;;;;;493096;241;1352;-73
2022/02/17 08:30:00;;;;;;;;;;;23.90;36.10;;;;;;493553;241;1240;-73
2022/02/17 08:32:02;;;;;;;;;;;23.90;36.10;;;;;;493279;241;1210;-73
2022/02/17 08:34:04;;;;;;;;;;;23.80;36.00;;;;;;493214;241;2127;-74
2022/02/17 08:36:05;;;;;;;;;;;23.90;36.00;;;;;;493326;241;1176;-74
2022/02/17 08:38:06;;;;;;;;;;;24.00;35.80;;;;;;493435;241;1037;-74
2022/02/17 08:40:07;;;;;;;;;;;24.00;35.90;;;;;;493385;241;1019;-73
2022/02/17 08:42:09;;;;;;;;;;;23.90;36.00;;;;;;493677;241;1212;-73
2022/02/17 08:44:10;;;;;;;;;;;23.90;36.00;;;;;;493247;241;1034;-74
2022/02/17 08:46:11;;;;;;;;;;;23.90;36.10;;;;;;493480;241;1161;-74
2022/02/17 08:48:13;;;;;;;;;;;24.00;36.10;;;;;;493358;241;993;-74
2022/02/17 08:50:14;;;;;;;;;;;23.90;36.10;;;;;;493383;241;1025;-74
2022/02/17 08:52:16;;;;;;;;;;;23.90;36.20;;;;;;493346;241;1087;-74
2022/02/17 08:54:16;;;;;;;;;;;23.90;36.20;;;;;;492649;241;2190;-74
2022/02/17 08:56:18;;;;;;;;;;;24.00;36.20;;;;;;492810;241;1207;-74
2022/02/17 08:58:19;;;;;;;;;;;23.90;36.40;;;;;;493420;241;1047;-74
2022/02/17 09:00:20;;;;;;;;;;;24.00;36.50;;;;;;493178;241;1019;-74
2022/02/17 09:02:22;;;;;;;;;;;24.00;36.50;;;;;;493612;241;1173;-74
2022/02/17 09:04:23;;;;;;;;;;;24.00;36.30;;;;;;493269;241;1017;-73
2022/02/17 09:06:25;;;;;;;;;;;24.10;36.40;;;;;;493302;241;1277;-73
2022/02/17 09:08:26;;;;;;;;;;;24.00;36.50;;;;;;493193;241;1190;-73
2022/02/17 09:10:27;;;;;;;;;;;24.00;36.50;;;;;;493124;241;1092;-74
2022/02/17 09:12:29;;;;;;;;;;;24.00;36.60;;;;;;493423;241;2174;-74
2022/02/17 09:14:30;;;;;;;;;;;24.10;36.60;;;;;;493044;241;1155;-74
2022/02/17 09:16:31;;;;;;;;;;;24.10;36.60;;;;;;493387;241;1147;-74
2022/02/17 09:18:33;;;;;;;;;;;24.10;36.60;;;;;;493365;241;1043;-74
2022/02/17 09:20:36;;;;;;;;;;;24.10;36.60;;;;;;493219;241;1304;-74
2022/02/17 09:22:35;;;;;;;;;;;24.10;36.70;;;;;;493122;241;1412;-74
2022/02/17 09:24:36;;;;;;;;;;;24.10;36.70;;;;;;493083;241;969;-74
2022/02/17 09:26:38;;;;;;;;;;;24.00;36.80;;;;;;493099;241;1212;-74
2022/02/17 09:28:41;;;;;;;;;;;24.00;36.90;;;;;;494194;241;1069;-74
2022/02/17 09:30:41;;;;;;;;;;;24.00;37.00;;;;;;493600;241;1276;-74
2022/02/17 09:32:42;;;;;;;;;;;24.00;37.00;;;;;;492991;241;2179;-74
2022/02/17 09:34:45;;;;;;;;;;;24.00;37.00;;;;;;493035;241;1101;-74
2022/02/17 09:36:44;;;;;;;;;;;24.00;37.00;;;;;;493479;241;1405;-74
2022/02/17 09:38:46;;;;;;;;;;;23.90;37.20;;;;;;493546;241;983;-74
2022/02/17 09:40:47;;;;;;;;;;;23.80;37.40;;;;;;493336;241;1296;-74
2022/02/17 09:42:48;;;;;;;;;;;23.60;37.60;;;;;;493510;241;1095;-74
2022/02/17 09:44:50;;;;;;;;;;;23.60;37.80;;;;;;493161;241;1053;-74
2022/02/17 09:46:52;;;;;;;;;;;23.60;37.80;;;;;;493294;241;1213;-74
2022/02/17 09:48:55;;;;;;;;;;;23.90;37.50;;;;;;493739;241;1294;-74
2022/02/17 09:50:54;;;;;;;;;;;24.40;36.80;;;;;;493227;241;1295;-74
2022/02/17 09:52:57;;;;;;;;;;;25.00;35.80;;;;;;493508;241;2197;-74
2022/02/17 09:54:57;;;;;;;;;;;25.50;34.80;;;;;;492982;241;1397;-74
2022/02/17 09:56:58;;;;;;;;;;;25.40;34.90;;;;;;493292;241;1114;-74
2022/02/17 09:58:59;;;;;;;;;;;25.00;35.30;;;;;;493388;241;1059;-74
2022/02/17 10:01:01;;;;;;;;;;;24.60;35.90;;;;;;493495;241;1145;-74
2022/02/17 10:03:02;;;;;;;;;;;24.20;36.50;;;;;;492961;241;1372;-74
2022/02/17 10:05:03;;;;;;;;;;;23.90;37.00;;;;;;493002;241;1367;-74
2022/02/17 10:07:06;;;;;;;;;;;24.00;37.00;;;;;;493168;241;1108;-74
2022/02/17 10:09:08;;;;;;;;;;;23.90;37.10;;;;;;493062;241;1303;-74
2022/02/17 10:11:09;;;;;;;;;;;24.00;36.80;;;;;;493412;241;1049;-74
2022/02/17 10:13:10;;;;;;;;;;;23.90;36.80;;;;;;493460;241;2174;-74
2022/02/17 10:15:12;;;;;;;;;;;23.80;37.00;;;;;;493214;241;1238;-74
2022/02/17 10:17:14;;;;;;;;;;;23.70;37.20;;;;;;493339;241;1046;-74
2022/02/17 10:19:14;;;;;;;;;;;23.60;37.40;;;;;;493297;241;1327;-74
2022/02/17 10:21:16;;;;;;;;;;;23.50;37.60;;;;;;493224;241;1130;-74
2022/02/17 10:23:17;;;;;;;;;;;23.40;37.50;;;;;;493455;241;1000;-74
2022/02/17 10:25:18;;;;;;;;;;;23.40;37.60;;;;;;493202;241;955;-74
2022/02/17 10:27:20;;;;;;;;;;;23.40;37.60;;;;;;493386;241;1118;-74
2022/02/17 10:29:21;;;;;;;;;;;23.10;37.70;;;;;;493287;241;1041;-74
2022/02/17 10:31:22;;;;;;;;;;;22.90;38.20;;;;;;493228;241;1117;-74
2022/02/17 10:33:24;;;;;;;;;;;22.90;38.50;;;;;;493206;241;2127;-74
2022/02/17 10:35:25;;;;;;;;;;;22.70;38.70;;;;;;493167;241;984;-74
2022/02/17 10:37:27;;;;;;;;;;;22.60;38.80;;;;;;493521;241;1096;-74
2022/02/17 10:39:28;;;;;;;;;;;22.50;39.00;;;;;;493324;241;1032;-74
2022/02/17 10:41:29;;;;;;;;;;;22.60;39.00;;;;;;493235;241;1219;-74
2022/02/17 10:43:31;;;;;;;;;;;22.50;39.10;;;;;;493391;241;1163;-74
2022/02/17 10:45:32;;;;;;;;;;;22.40;39.20;;;;;;493415;241;997;-75
2022/02/17 10:47:33;;;;;;;;;;;22.30;39.30;;;;;;493177;241;1156;-74
2022/02/17 10:49:37;;;;;;;;;;;22.30;39.30;;;;;;493280;241;1667;-74
2022/02/17 10:51:36;;;;;;;;;;;22.30;39.20;;;;;;493042;241;2261;-74
2022/02/17 10:53:40;;;;;;;;;;;22.30;39.10;;;;;;493263;241;2175;-74
2022/02/17 10:55:39;;;;;;;;;;;22.20;39.20;;;;;;492984;241;1410;-74
2022/02/17 10:57:40;;;;;;;;;;;22.20;39.10;;;;;;493256;241;1203;-74
2022/02/17 11:02:02;;;;;;;;;;;22.20;38.90;;;;;;493154;241;1126;-74
2022/02/17 11:04:02;;;;;;;;;;;22.20;39.00;;;;;;493212;241;1324;-74
2022/02/17 11:06:03;;;;;;;;;;;22.20;38.90;;;;;;493300;241;1210;-74
2022/02/17 11:08:05;;;;;;;;;;;22.20;38.90;;;;;;493361;241;1088;-74
2022/02/17 11:10:06;;;;;;;;;;;22.20;38.80;;;;;;493220;241;1000;-74
2022/02/17 11:12:07;;;;;;;;;;;22.10;38.80;;;;;;493340;241;1351;-74
2022/02/17 11:14:09;;;;;;;;;;;22.20;38.80;;;;;;493443;241;2540;-74
2022/02/17 11:16:10;;;;;;;;;;;22.10;38.70;;;;;;493281;241;1393;-74
2022/02/17 11:18:11;;;;;;;;;;;22.10;38.70;;;;;;493453;241;1077;-74
2022/02/17 11:20:17;;;;;;;;;;;22.20;38.60;;;;;;493414;241;995;-74
2022/02/17 11:22:16;;;;;;;;;;;22.20;38.50;;;;;;493170;241;1292;-74
2022/02/17 11:24:15;;;;;;;;;;;22.10;38.70;;;;;;493221;241;1282;-74
2022/02/17 11:26:17;;;;;;;;;;;22.00;38.70;;;;;;493321;241;1132;-74
2022/02/17 11:28:20;;;;;;;;;;;22.00;38.80;;;;;;493251;241;1143;-74
2022/02/17 11:30:19;;;;;;;;;;;22.00;38.80;;;;;;493185;241;1511;-74
2022/02/17 11:32:23;;;;;;;;;;;22.00;38.70;;;;;;493350;241;1081;-74
2022/02/17 11:34:22;;;;;;;;;;;22.10;38.50;;;;;;493195;241;2178;-74
2022/02/17 11:36:25;;;;;;;;;;;22.10;38.30;;;;;;493293;241;1147;-74
2022/02/17 11:38:25;;;;;;;;;;;22.10;38.40;;;;;;493376;241;1300;-74
2022/02/17 11:40:26;;;;;;;;;;;22.10;38.30;;;;;;493198;241;1281;-74
2022/02/17 11:42:27;;;;;;;;;;;22.00;38.30;;;;;;493394;241;1275;-74
2022/02/17 11:44:32;;;;;;;;;;;22.10;38.20;;;;;;493208;241;1192;-74
2022/02/17 11:46:30;;;;;;;;;;;22.10;38.10;;;;;;493196;241;1423;-74
2022/02/17 11:48:31;;;;;;;;;;;22.10;37.90;;;;;;493237;241;1221;-74
2022/02/17 11:50:33;;;;;;;;;;;22.00;38.00;;;;;;493236;241;1112;-74
2022/02/17 11:52:36;;;;;;;;;;;22.00;38.00;;;;;;493763;241;1274;-74
2022/02/17 11:54:36;;;;;;;;;;;22.00;38.00;;;;;;493271;241;2119;-74
2022/02/17 11:56:37;;;;;;;;;;;22.00;37.90;;;;;;493444;241;1108;-74
2022/02/17 11:58:38;;;;;;;;;;;22.00;37.80;;;;;;493242;241;1244;-74
2022/02/17 12:00:41;;;;;;;;;;;22.00;37.70;;;;;;493346;241;1105;-74
2022/02/17 12:02:41;;;;;;;;;;;22.00;37.70;;;;;;493481;241;1407;-74
2022/02/17 12:04:42;;;;;;;;;;;22.10;37.40;;;;;;493292;241;998;-74